sensor_id;sensor_type;location;lat;lon;timestamp;temperature;humidity
26583;DHT22;14230;45.382;10.998;2023-02-28T00:01:29;5.40;99.90
26583;DHT22;14230;45.382;10.998;2023-02-28T00:03:58;5.40;99.90
26583;DHT22;14230;45.382;10.998;2023-02-28T00:06:26;5.40;99.90
26583;DHT22;14230;45.382;10.998;2023-02-28T00:08:54;5.40;99.90
26583;DHT22;14230;45.382;10.998;2023-02-28T00:11:22;5.40;99.90
26583;DHT22;14230;45.382;10.998;2023-02-28T00:13:51;5.40;99.90
26583;DHT22;14230;45.382;10.998;2023-02-28T00:16:21;5.40;99.90
26583;DHT22;14230;45.382;10.998;2023-02-28T00:18:50;5.40;99.90
26583;DHT22;14230;45.382;10.998;2023-02-28T00:21:20;5.30;99.90
26583;DHT22;14230;45.382;10.998;2023-02-28T00:23:48;5.30;99.90
26583;DHT22;14230;45.382;10.998;2023-02-28T00:26:16;5.40;99.90
26583;DHT22;14230;45.382;10.998;2023-02-28T00:28:46;5.40;99.90
26583;DHT22;14230;45.382;10.998;2023-02-28T00:31:15;5.30;99.90
26583;DHT22;14230;45.382;10.998;2023-02-28T00:33:43;5.40;99.90
26583;DHT22;14230;45.382;10.998;2023-02-28T00:36:11;5.30;99.90
26583;DHT22;14230;45.382;10.998;2023-02-28T00:38:40;5.30;99.90
26583;DHT22;14230;45.382;10.998;2023-02-28T00:41:08;5.30;99.90
26583;DHT22;14230;45.382;10.998;2023-02-28T00:43:38;5.30;99.90
26583;DHT22;14230;45.382;10.998;2023-02-28T00:46:06;5.30;99.90
26583;DHT22;14230;45.382;10.998;2023-02-28T00:48:34;5.30;99.90
26583;DHT22;14230;45.382;10.998;2023-02-28T00:51:03;5.30;99.90
26583;DHT22;14230;45.382;10.998;2023-02-28T00:53:31;5.20;99.90
26583;DHT22;14230;45.382;10.998;2023-02-28T00:56:00;5.20;99.90
26583;DHT22;14230;45.382;10.998;2023-02-28T00:58:27;5.20;99.90
26583;DHT22;14230;45.382;10.998;2023-02-28T01:00:55;5.20;99.90
26583;DHT22;14230;45.382;10.998;2023-02-28T01:03:23;5.20;99.90
26583;DHT22;14230;45.382;10.998;2023-02-28T01:05:50;5.10;99.90
26583;DHT22;14230;45.382;10.998;2023-02-28T01:08:18;5.10;99.90
26583;DHT22;14230;45.382;10.998;2023-02-28T01:10:45;5.10;99.90
26583;DHT22;14230;45.382;10.998;2023-02-28T01:13:14;5.00;99.90
26583;DHT22;14230;45.382;10.998;2023-02-28T01:15:46;5.00;99.90
26583;DHT22;14230;45.382;10.998;2023-02-28T01:18:15;5.00;99.90
26583;DHT22;14230;45.382;10.998;2023-02-28T01:20:43;4.90;99.90
26583;DHT22;14230;45.382;10.998;2023-02-28T01:23:10;5.00;99.90
26583;DHT22;14230;45.382;10.998;2023-02-28T01:25:38;4.90;99.90
26583;DHT22;14230;45.382;10.998;2023-02-28T01:28:06;4.90;99.90
26583;DHT22;14230;45.382;10.998;2023-02-28T01:30:34;4.90;99.90
26583;DHT22;14230;45.382;10.998;2023-02-28T01:33:01;4.90;99.90
26583;DHT22;14230;45.382;10.998;2023-02-28T01:35:32;4.80;99.90
26583;DHT22;14230;45.382;10.998;2023-02-28T01:38:01;4.90;99.90
26583;DHT22;14230;45.382;10.998;2023-02-28T01:40:47;4.80;99.90
26583;DHT22;14230;45.382;10.998;2023-02-28T01:45:56;4.90;99.90
26583;DHT22;14230;45.382;10.998;2023-02-28T01:48:31;4.80;99.90
26583;DHT22;14230;45.382;10.998;2023-02-28T01:51:04;4.90;99.90
26583;DHT22;14230;45.382;10.998;2023-02-28T01:53:37;4.90;99.90
26583;DHT22;14230;45.382;10.998;2023-02-28T01:56:07;4.90;99.90
26583;DHT22;14230;45.382;10.998;2023-02-28T01:58:36;4.90;99.90
26583;DHT22;14230;45.382;10.998;2023-02-28T02:01:04;4.90;99.90
26583;DHT22;14230;45.382;10.998;2023-02-28T02:03:35;4.90;99.90
26583;DHT22;14230;45.382;10.998;2023-02-28T02:06:03;5.00;99.90
26583;DHT22;14230;45.382;10.998;2023-02-28T02:08:31;4.90;99.90
26583;DHT22;14230;45.382;10.998;2023-02-28T02:11:02;4.90;99.90
26583;DHT22;14230;45.382;10.998;2023-02-28T02:36:06;5.00;99.90
26583;DHT22;14230;45.382;10.998;2023-02-28T02:38:50;5.10;99.90
26583;DHT22;14230;45.382;10.998;2023-02-28T02:41:36;5.00;99.90
26583;DHT22;14230;45.382;10.998;2023-02-28T02:44:12;5.00;99.90
26583;DHT22;14230;45.382;10.998;2023-02-28T02:46:48;5.00;99.90
26583;DHT22;14230;45.382;10.998;2023-02-28T02:49:33;5.00;99.90
26583;DHT22;14230;45.382;10.998;2023-02-28T02:52:07;5.00;99.90
26583;DHT22;14230;45.382;10.998;2023-02-28T02:54:40;5.00;99.90
26583;DHT22;14230;45.382;10.998;2023-02-28T02:57:15;5.00;99.90
26583;DHT22;14230;45.382;10.998;2023-02-28T02:59:45;5.00;99.90
26583;DHT22;14230;45.382;10.998;2023-02-28T03:02:15;5.00;99.90
26583;DHT22;14230;45.382;10.998;2023-02-28T03:04:52;4.90;99.90
26583;DHT22;14230;45.382;10.998;2023-02-28T03:07:23;4.90;99.90
26583;DHT22;14230;45.382;10.998;2023-02-28T03:09:55;4.90;99.90
26583;DHT22;14230;45.382;10.998;2023-02-28T03:12:33;4.90;99.90
26583;DHT22;14230;45.382;10.998;2023-02-28T03:15:40;4.80;99.90
26583;DHT22;14230;45.382;10.998;2023-02-28T03:18:31;4.80;99.90
26583;DHT22;14230;45.382;10.998;2023-02-28T03:24:21;4.80;99.90
26583;DHT22;14230;45.382;10.998;2023-02-28T03:26:58;4.80;99.90
26583;DHT22;14230;45.382;10.998;2023-02-28T03:29:44;4.80;99.90
26583;DHT22;14230;45.382;10.998;2023-02-28T03:32:36;4.80;99.90
26583;DHT22;14230;45.382;10.998;2023-02-28T03:35:37;4.80;99.90
26583;DHT22;14230;45.382;10.998;2023-02-28T03:38:21;4.70;99.90
26583;DHT22;14230;45.382;10.998;2023-02-28T03:40:57;4.70;99.90
26583;DHT22;14230;45.382;10.998;2023-02-28T03:43:31;4.60;99.90
26583;DHT22;14230;45.382;10.998;2023-02-28T03:46:07;4.60;99.90
26583;DHT22;14230;45.382;10.998;2023-02-28T03:48:53;4.50;99.90
26583;DHT22;14230;45.382;10.998;2023-02-28T03:51:24;4.40;99.90
26583;DHT22;14230;45.382;10.998;2023-02-28T03:53:56;4.40;99.90
26583;DHT22;14230;45.382;10.998;2023-02-28T03:56:34;4.40;99.90
26583;DHT22;14230;45.382;10.998;2023-02-28T03:59:27;4.30;99.90
26583;DHT22;14230;45.382;10.998;2023-02-28T04:01:57;4.30;99.90
26583;DHT22;14230;45.382;10.998;2023-02-28T04:04:25;4.30;99.90
26583;DHT22;14230;45.382;10.998;2023-02-28T04:07:01;4.30;99.90
26583;DHT22;14230;45.382;10.998;2023-02-28T04:09:29;4.30;99.90
26583;DHT22;14230;45.382;10.998;2023-02-28T04:11:56;4.30;99.90
26583;DHT22;14230;45.382;10.998;2023-02-28T04:14:24;4.30;99.90
26583;DHT22;14230;45.382;10.998;2023-02-28T04:16:51;4.30;99.90
26583;DHT22;14230;45.382;10.998;2023-02-28T04:19:19;4.30;99.90
26583;DHT22;14230;45.382;10.998;2023-02-28T04:21:50;4.40;99.90
26583;DHT22;14230;45.382;10.998;2023-02-28T04:24:23;4.40;99.90
26583;DHT22;14230;45.382;10.998;2023-02-28T04:26:53;4.40;99.90
26583;DHT22;14230;45.382;10.998;2023-02-28T04:29:29;4.40;99.90
26583;DHT22;14230;45.382;10.998;2023-02-28T04:31:58;4.40;99.90
26583;DHT22;14230;45.382;10.998;2023-02-28T04:34:27;4.40;99.90
26583;DHT22;14230;45.382;10.998;2023-02-28T04:36:56;4.40;99.90
26583;DHT22;14230;45.382;10.998;2023-02-28T04:39:39;4.40;99.90
26583;DHT22;14230;45.382;10.998;2023-02-28T04:42:06;4.40;99.90
26583;DHT22;14230;45.382;10.998;2023-02-28T04:44:34;4.40;99.90
26583;DHT22;14230;45.382;10.998;2023-02-28T04:47:01;4.50;99.90
26583;DHT22;14230;45.382;10.998;2023-02-28T04:49:29;4.50;99.90
26583;DHT22;14230;45.382;10.998;2023-02-28T04:51:56;4.50;99.90
26583;DHT22;14230;45.382;10.998;2023-02-28T04:54:24;4.50;99.90
26583;DHT22;14230;45.382;10.998;2023-02-28T04:56:51;4.50;99.90
26583;DHT22;14230;45.382;10.998;2023-02-28T04:59:19;4.50;99.90
26583;DHT22;14230;45.382;10.998;2023-02-28T05:01:47;4.40;99.90
26583;DHT22;14230;45.382;10.998;2023-02-28T05:04:15;4.40;99.90
26583;DHT22;14230;45.382;10.998;2023-02-28T05:06:44;4.40;99.90
26583;DHT22;14230;45.382;10.998;2023-02-28T05:09:12;4.40;99.90
26583;DHT22;14230;45.382;10.998;2023-02-28T05:11:40;4.40;99.90
26583;DHT22;14230;45.382;10.998;2023-02-28T05:14:12;4.40;99.90
26583;DHT22;14230;45.382;10.998;2023-02-28T05:16:41;4.30;99.90
26583;DHT22;14230;45.382;10.998;2023-02-28T05:19:09;4.30;99.90
26583;DHT22;14230;45.382;10.998;2023-02-28T05:21:54;4.30;99.90
26583;DHT22;14230;45.382;10.998;2023-02-28T05:24:22;4.30;99.90
26583;DHT22;14230;45.382;10.998;2023-02-28T05:26:53;4.30;99.90
26583;DHT22;14230;45.382;10.998;2023-02-28T05:29:21;4.40;99.90
26583;DHT22;14230;45.382;10.998;2023-02-28T05:31:49;4.30;99.90
26583;DHT22;14230;45.382;10.998;2023-02-28T05:34:17;4.30;99.90
26583;DHT22;14230;45.382;10.998;2023-02-28T05:36:45;4.30;99.90
26583;DHT22;14230;45.382;10.998;2023-02-28T05:39:12;4.20;99.90
26583;DHT22;14230;45.382;10.998;2023-02-28T05:41:41;4.20;99.90
26583;DHT22;14230;45.382;10.998;2023-02-28T05:44:09;4.10;99.90
26583;DHT22;14230;45.382;10.998;2023-02-28T05:46:37;4.00;99.90
26583;DHT22;14230;45.382;10.998;2023-02-28T05:49:05;3.90;99.90
26583;DHT22;14230;45.382;10.998;2023-02-28T05:51:33;3.90;99.90
26583;DHT22;14230;45.382;10.998;2023-02-28T05:54:03;4.00;99.90
26583;DHT22;14230;45.382;10.998;2023-02-28T05:56:31;4.00;99.90
26583;DHT22;14230;45.382;10.998;2023-02-28T05:58:58;4.10;99.90
26583;DHT22;14230;45.382;10.998;2023-02-28T06:01:44;4.10;99.90
26583;DHT22;14230;45.382;10.998;2023-02-28T06:04:17;4.10;99.90
26583;DHT22;14230;45.382;10.998;2023-02-28T06:06:57;4.20;99.90
26583;DHT22;14230;45.382;10.998;2023-02-28T06:09:25;4.10;99.90
26583;DHT22;14230;45.382;10.998;2023-02-28T06:11:52;4.10;99.90
26583;DHT22;14230;45.382;10.998;2023-02-28T06:14:21;4.20;99.90
26583;DHT22;14230;45.382;10.998;2023-02-28T06:16:48;4.40;99.90
26583;DHT22;14230;45.382;10.998;2023-02-28T06:19:16;4.70;99.90
26583;DHT22;14230;45.382;10.998;2023-02-28T06:21:44;5.10;99.90
26583;DHT22;14230;45.382;10.998;2023-02-28T06:24:11;5.50;99.90
26583;DHT22;14230;45.382;10.998;2023-02-28T06:26:39;5.80;99.90
26583;DHT22;14230;45.382;10.998;2023-02-28T06:29:07;6.30;99.90
26583;DHT22;14230;45.382;10.998;2023-02-28T06:31:34;6.70;99.90
26583;DHT22;14230;45.382;10.998;2023-02-28T06:34:02;7.10;99.90
26583;DHT22;14230;45.382;10.998;2023-02-28T06:36:29;7.50;99.90
26583;DHT22;14230;45.382;10.998;2023-02-28T06:38:57;8.00;99.90
26583;DHT22;14230;45.382;10.998;2023-02-28T06:41:26;8.20;99.90
26583;DHT22;14230;45.382;10.998;2023-02-28T06:43:54;8.20;99.90
26583;DHT22;14230;45.382;10.998;2023-02-28T06:46:22;8.30;99.90
26583;DHT22;14230;45.382;10.998;2023-02-28T06:48:50;8.30;99.90
26583;DHT22;14230;45.382;10.998;2023-02-28T06:51:19;8.30;99.90
26583;DHT22;14230;45.382;10.998;2023-02-28T06:53:49;8.10;99.90
26583;DHT22;14230;45.382;10.998;2023-02-28T06:56:18;8.30;99.90
26583;DHT22;14230;45.382;10.998;2023-02-28T06:58:50;8.70;99.90
26583;DHT22;14230;45.382;10.998;2023-02-28T07:01:20;9.10;99.20
26583;DHT22;14230;45.382;10.998;2023-02-28T07:03:50;9.40;99.30
26583;DHT22;14230;45.382;10.998;2023-02-28T07:06:23;9.90;98.50
26583;DHT22;14230;45.382;10.998;2023-02-28T07:08:52;10.30;97.80
26583;DHT22;14230;45.382;10.998;2023-02-28T07:11:21;10.40;97.00
26583;DHT22;14230;45.382;10.998;2023-02-28T07:13:50;10.20;97.00
26583;DHT22;14230;45.382;10.998;2023-02-28T07:16:18;10.60;96.90
26583;DHT22;14230;45.382;10.998;2023-02-28T07:18:45;10.80;96.40
26583;DHT22;14230;45.382;10.998;2023-02-28T07:21:13;10.90;96.00
26583;DHT22;14230;45.382;10.998;2023-02-28T07:23:41;10.90;95.70
26583;DHT22;14230;45.382;10.998;2023-02-28T07:26:12;11.10;95.50
26583;DHT22;14230;45.382;10.998;2023-02-28T07:28:42;10.80;95.60
26583;DHT22;14230;45.382;10.998;2023-02-28T07:31:10;10.80;95.60
26583;DHT22;14230;45.382;10.998;2023-02-28T07:33:38;10.90;95.60
26583;DHT22;14230;45.382;10.998;2023-02-28T07:36:14;11.40;95.20
26583;DHT22;14230;45.382;10.998;2023-02-28T07:38:47;11.70;94.50
26583;DHT22;14230;45.382;10.998;2023-02-28T07:41:20;11.40;94.40
26583;DHT22;14230;45.382;10.998;2023-02-28T07:43:48;11.80;94.30
26583;DHT22;14230;45.382;10.998;2023-02-28T07:46:16;11.90;94.10
26583;DHT22;14230;45.382;10.998;2023-02-28T07:48:44;11.90;94.00
26583;DHT22;14230;45.382;10.998;2023-02-28T07:51:13;11.90;93.50
26583;DHT22;14230;45.382;10.998;2023-02-28T07:53:40;12.20;93.50
26583;DHT22;14230;45.382;10.998;2023-02-28T07:56:08;12.10;93.60
26583;DHT22;14230;45.382;10.998;2023-02-28T07:58:36;12.60;93.00
26583;DHT22;14230;45.382;10.998;2023-02-28T08:01:08;12.60;92.50
26583;DHT22;14230;45.382;10.998;2023-02-28T08:03:36;12.60;92.40
26583;DHT22;14230;45.382;10.998;2023-02-28T08:06:06;12.00;93.00
26583;DHT22;14230;45.382;10.998;2023-02-28T08:08:34;11.80;93.20
26583;DHT22;14230;45.382;10.998;2023-02-28T08:11:02;11.70;93.20
26583;DHT22;14230;45.382;10.998;2023-02-28T08:13:30;11.90;92.90
26583;DHT22;14230;45.382;10.998;2023-02-28T08:15:58;11.70;92.80
26583;DHT22;14230;45.382;10.998;2023-02-28T08:18:25;11.10;93.50
26583;DHT22;14230;45.382;10.998;2023-02-28T08:20:52;10.60;94.30
26583;DHT22;14230;45.382;10.998;2023-02-28T08:23:20;10.40;94.50
26583;DHT22;14230;45.382;10.998;2023-02-28T08:25:55;11.20;93.70
26583;DHT22;14230;45.382;10.998;2023-02-28T08:28:23;11.50;93.30
26583;DHT22;14230;45.382;10.998;2023-02-28T08:30:53;11.50;93.20
26583;DHT22;14230;45.382;10.998;2023-02-28T08:33:22;12.30;92.80
26583;DHT22;14230;45.382;10.998;2023-02-28T08:35:53;12.70;92.00
26583;DHT22;14230;45.382;10.998;2023-02-28T08:38:21;12.60;92.30
26583;DHT22;14230;45.382;10.998;2023-02-28T08:40:49;12.10;92.50
26583;DHT22;14230;45.382;10.998;2023-02-28T08:43:16;12.60;91.80
26583;DHT22;14230;45.382;10.998;2023-02-28T08:45:44;13.30;91.30
26583;DHT22;14230;45.382;10.998;2023-02-28T08:48:11;13.50;90.80
26583;DHT22;14230;45.382;10.998;2023-02-28T08:50:40;13.00;91.30
26583;DHT22;14230;45.382;10.998;2023-02-28T08:53:08;12.30;92.30
26583;DHT22;14230;45.382;10.998;2023-02-28T08:55:35;11.70;92.40
26583;DHT22;14230;45.382;10.998;2023-02-28T08:58:03;11.90;92.70
26583;DHT22;14230;45.382;10.998;2023-02-28T09:00:30;12.70;92.10
26583;DHT22;14230;45.382;10.998;2023-02-28T09:02:57;13.30;91.20
26583;DHT22;14230;45.382;10.998;2023-02-28T09:05:25;13.80;89.30
26583;DHT22;14230;45.382;10.998;2023-02-28T09:07:52;13.70;89.00
26583;DHT22;14230;45.382;10.998;2023-02-28T09:10:19;13.90;89.50
26583;DHT22;14230;45.382;10.998;2023-02-28T09:12:47;13.70;89.00
26583;DHT22;14230;45.382;10.998;2023-02-28T09:15:14;13.50;90.30
26583;DHT22;14230;45.382;10.998;2023-02-28T09:17:42;13.70;89.60
26583;DHT22;14230;45.382;10.998;2023-02-28T09:20:12;13.80;88.30
26583;DHT22;14230;45.382;10.998;2023-02-28T09:22:40;14.10;87.20
26583;DHT22;14230;45.382;10.998;2023-02-28T09:25:07;14.60;86.10
26583;DHT22;14230;45.382;10.998;2023-02-28T09:27:35;14.30;85.60
26583;DHT22;14230;45.382;10.998;2023-02-28T09:30:02;14.50;85.70
26583;DHT22;14230;45.382;10.998;2023-02-28T09:32:30;14.80;85.00
26583;DHT22;14230;45.382;10.998;2023-02-28T09:34:57;14.50;83.30
26583;DHT22;14230;45.382;10.998;2023-02-28T09:37:25;14.50;84.20
26583;DHT22;14230;45.382;10.998;2023-02-28T09:39:56;14.40;84.20
26583;DHT22;14230;45.382;10.998;2023-02-28T09:42:31;14.10;82.90
26583;DHT22;14230;45.382;10.998;2023-02-28T09:45:02;14.30;83.80
26583;DHT22;14230;45.382;10.998;2023-02-28T09:47:41;14.70;81.70
26583;DHT22;14230;45.382;10.998;2023-02-28T09:52:49;14.90;79.70
26583;DHT22;14230;45.382;10.998;2023-02-28T09:55:30;14.20;81.10
26583;DHT22;14230;45.382;10.998;2023-02-28T10:04:03;13.80;82.50
26583;DHT22;14230;45.382;10.998;2023-02-28T10:06:44;14.50;82.00
26583;DHT22;14230;45.382;10.998;2023-02-28T10:09:24;15.40;80.50
26583;DHT22;14230;45.382;10.998;2023-02-28T10:11:54;15.10;80.60
26583;DHT22;14230;45.382;10.998;2023-02-28T10:14:26;14.10;81.30
26583;DHT22;14230;45.382;10.998;2023-02-28T10:16:58;13.70;82.60
26583;DHT22;14230;45.382;10.998;2023-02-28T10:19:38;13.60;83.50
26583;DHT22;14230;45.382;10.998;2023-02-28T10:22:14;13.70;84.20
26583;DHT22;14230;45.382;10.998;2023-02-28T10:24:47;14.30;83.40
26583;DHT22;14230;45.382;10.998;2023-02-28T10:27:23;14.40;80.60
26583;DHT22;14230;45.382;10.998;2023-02-28T10:29:55;13.80;81.60
26583;DHT22;14230;45.382;10.998;2023-02-28T10:32:26;13.50;83.30
26583;DHT22;14230;45.382;10.998;2023-02-28T10:35:19;13.00;84.10
26583;DHT22;14230;45.382;10.998;2023-02-28T10:37:59;12.80;83.40
26583;DHT22;14230;45.382;10.998;2023-02-28T10:40:34;12.50;84.50
26583;DHT22;14230;45.382;10.998;2023-02-28T10:43:19;12.60;85.80
26583;DHT22;14230;45.382;10.998;2023-02-28T10:45:53;12.30;86.80
26583;DHT22;14230;45.382;10.998;2023-02-28T11:01:40;13.00;85.50
26583;DHT22;14230;45.382;10.998;2023-02-28T11:07:18;12.80;85.10
26583;DHT22;14230;45.382;10.998;2023-02-28T11:09:52;12.60;84.20
26583;DHT22;14230;45.382;10.998;2023-02-28T11:12:30;12.50;85.40
26583;DHT22;14230;45.382;10.998;2023-02-28T11:15:06;12.90;84.40
26583;DHT22;14230;45.382;10.998;2023-02-28T11:18:08;12.60;84.80
26583;DHT22;14230;45.382;10.998;2023-02-28T11:20:49;11.90;87.20
26583;DHT22;14230;45.382;10.998;2023-02-28T11:23:17;11.20;88.40
26583;DHT22;14230;45.382;10.998;2023-02-28T11:25:50;11.00;90.20
26583;DHT22;14230;45.382;10.998;2023-02-28T11:28:30;10.70;90.60
26583;DHT22;14230;45.382;10.998;2023-02-28T11:38:39;10.70;90.70
26583;DHT22;14230;45.382;10.998;2023-02-28T11:46:47;10.50;91.50
26583;DHT22;14230;45.382;10.998;2023-02-28T11:49:34;10.50;92.10
26583;DHT22;14230;45.382;10.998;2023-02-28T12:00:29;10.60;92.60
26583;DHT22;14230;45.382;10.998;2023-02-28T12:05:49;10.90;91.90
26583;DHT22;14230;45.382;10.998;2023-02-28T12:22:21;10.60;91.60
26583;DHT22;14230;45.382;10.998;2023-02-28T12:27:42;10.80;91.80
26583;DHT22;14230;45.382;10.998;2023-02-28T12:30:32;10.90;92.80
26583;DHT22;14230;45.382;10.998;2023-02-28T12:33:12;11.10;92.80
26583;DHT22;14230;45.382;10.998;2023-02-28T12:35:52;11.00;92.10
26583;DHT22;14230;45.382;10.998;2023-02-28T12:38:27;10.90;93.00
26583;DHT22;14230;45.382;10.998;2023-02-28T12:41:03;11.00;92.50
26583;DHT22;14230;45.382;10.998;2023-02-28T12:43:44;11.10;92.80
26583;DHT22;14230;45.382;10.998;2023-02-28T12:46:24;10.90;92.30
26583;DHT22;14230;45.382;10.998;2023-02-28T12:48:56;10.80;92.40
26583;DHT22;14230;45.382;10.998;2023-02-28T12:51:25;10.80;92.70
26583;DHT22;14230;45.382;10.998;2023-02-28T12:59:55;10.90;93.10
26583;DHT22;14230;45.382;10.998;2023-02-28T13:10:58;11.40;93.30
26583;DHT22;14230;45.382;10.998;2023-02-28T13:13:28;11.40;92.60
26583;DHT22;14230;45.382;10.998;2023-02-28T13:18:40;11.50;92.70
26583;DHT22;14230;45.382;10.998;2023-02-28T13:21:23;11.30;92.70
26583;DHT22;14230;45.382;10.998;2023-02-28T13:29:21;11.30;92.30
26583;DHT22;14230;45.382;10.998;2023-02-28T13:47:52;11.30;93.70
26583;DHT22;14230;45.382;10.998;2023-02-28T13:50:37;11.30;93.40
26583;DHT22;14230;45.382;10.998;2023-02-28T13:58:49;11.20;93.30
26583;DHT22;14230;45.382;10.998;2023-02-28T14:01:36;11.20;93.40
26583;DHT22;14230;45.382;10.998;2023-02-28T14:06:59;11.20;94.00
26583;DHT22;14230;45.382;10.998;2023-02-28T14:09:41;11.10;93.80
26583;DHT22;14230;45.382;10.998;2023-02-28T14:12:51;11.20;93.90
26583;DHT22;14230;45.382;10.998;2023-02-28T14:15:39;11.20;93.90
26583;DHT22;14230;45.382;10.998;2023-02-28T14:18:35;11.30;94.10
26583;DHT22;14230;45.382;10.998;2023-02-28T14:29:16;11.20;94.00
26583;DHT22;14230;45.382;10.998;2023-02-28T14:32:03;11.20;93.90
26583;DHT22;14230;45.382;10.998;2023-02-28T14:37:54;11.10;93.90
26583;DHT22;14230;45.382;10.998;2023-02-28T14:40:30;11.10;94.10
26583;DHT22;14230;45.382;10.998;2023-02-28T14:43:01;11.10;94.00
26583;DHT22;14230;45.382;10.998;2023-02-28T14:45:31;11.10;94.00
26583;DHT22;14230;45.382;10.998;2023-02-28T14:47:59;11.20;94.50
26583;DHT22;14230;45.382;10.998;2023-02-28T14:50:34;11.30;94.30
26583;DHT22;14230;45.382;10.998;2023-02-28T14:53:03;11.30;94.20
26583;DHT22;14230;45.382;10.998;2023-02-28T14:55:33;11.20;94.40
26583;DHT22;14230;45.382;10.998;2023-02-28T14:58:04;11.20;94.10
26583;DHT22;14230;45.382;10.998;2023-02-28T15:00:39;11.10;94.10
26583;DHT22;14230;45.382;10.998;2023-02-28T15:03:32;11.10;94.80
26583;DHT22;14230;45.382;10.998;2023-02-28T15:06:06;11.00;94.90
26583;DHT22;14230;45.382;10.998;2023-02-28T15:08:34;11.00;94.70
26583;DHT22;14230;45.382;10.998;2023-02-28T15:11:07;11.00;94.80
26583;DHT22;14230;45.382;10.998;2023-02-28T15:13:43;10.90;95.00
26583;DHT22;14230;45.382;10.998;2023-02-28T15:18:54;10.80;95.20
26583;DHT22;14230;45.382;10.998;2023-02-28T15:21:24;10.80;94.90
26583;DHT22;14230;45.382;10.998;2023-02-28T15:26:31;10.80;97.00
26583;DHT22;14230;45.382;10.998;2023-02-28T15:29:13;10.70;97.40
26583;DHT22;14230;45.382;10.998;2023-02-28T15:31:55;10.80;97.40
26583;DHT22;14230;45.382;10.998;2023-02-28T15:34:39;10.80;97.30
26583;DHT22;14230;45.382;10.998;2023-02-28T15:37:45;10.70;97.30
26583;DHT22;14230;45.382;10.998;2023-02-28T15:40:36;10.60;97.50
26583;DHT22;14230;45.382;10.998;2023-02-28T15:45:39;10.50;97.80
26583;DHT22;14230;45.382;10.998;2023-02-28T15:48:19;10.50;97.90
26583;DHT22;14230;45.382;10.998;2023-02-28T15:53:35;10.50;97.00
26583;DHT22;14230;45.382;10.998;2023-02-28T15:56:24;10.40;96.60
26583;DHT22;14230;45.382;10.998;2023-02-28T15:58:56;10.40;96.80
26583;DHT22;14230;45.382;10.998;2023-02-28T16:01:25;10.30;97.20
26583;DHT22;14230;45.382;10.998;2023-02-28T16:03:57;10.30;97.10
26583;DHT22;14230;45.382;10.998;2023-02-28T16:08:56;10.20;97.20
26583;DHT22;14230;45.382;10.998;2023-02-28T16:11:23;10.20;97.30
26583;DHT22;14230;45.382;10.998;2023-02-28T16:13:51;10.10;97.30
26583;DHT22;14230;45.382;10.998;2023-02-28T16:16:24;10.10;97.60
26583;DHT22;14230;45.382;10.998;2023-02-28T16:18:53;10.00;97.20
26583;DHT22;14230;45.382;10.998;2023-02-28T16:21:25;10.00;97.40
26583;DHT22;14230;45.382;10.998;2023-02-28T16:23:53;9.90;97.30
26583;DHT22;14230;45.382;10.998;2023-02-28T16:26:23;9.90;97.50
26583;DHT22;14230;45.382;10.998;2023-02-28T16:28:51;9.90;97.60
26583;DHT22;14230;45.382;10.998;2023-02-28T16:31:19;9.80;97.60
26583;DHT22;14230;45.382;10.998;2023-02-28T16:33:47;9.80;97.80
26583;DHT22;14230;45.382;10.998;2023-02-28T16:36:17;9.70;97.90
26583;DHT22;14230;45.382;10.998;2023-02-28T16:38:45;9.70;97.80
26583;DHT22;14230;45.382;10.998;2023-02-28T16:41:18;9.70;97.90
26583;DHT22;14230;45.382;10.998;2023-02-28T16:43:47;9.60;98.00
26583;DHT22;14230;45.382;10.998;2023-02-28T16:46:16;9.60;98.20
26583;DHT22;14230;45.382;10.998;2023-02-28T16:48:45;9.50;98.40
26583;DHT22;14230;45.382;10.998;2023-02-28T16:51:16;9.40;98.40
26583;DHT22;14230;45.382;10.998;2023-02-28T16:53:45;9.40;99.00
26583;DHT22;14230;45.382;10.998;2023-02-28T16:56:18;9.20;99.60
26583;DHT22;14230;45.382;10.998;2023-02-28T16:58:47;9.10;99.90
26583;DHT22;14230;45.382;10.998;2023-02-28T17:01:15;9.00;99.90
26583;DHT22;14230;45.382;10.998;2023-02-28T17:03:42;8.80;99.90
26583;DHT22;14230;45.382;10.998;2023-02-28T17:06:20;8.70;99.90
26583;DHT22;14230;45.382;10.998;2023-02-28T17:08:50;8.60;99.90
26583;DHT22;14230;45.382;10.998;2023-02-28T17:11:19;8.50;99.90
26583;DHT22;14230;45.382;10.998;2023-02-28T17:13:46;8.50;99.90
26583;DHT22;14230;45.382;10.998;2023-02-28T17:16:31;8.50;99.90
26583;DHT22;14230;45.382;10.998;2023-02-28T17:19:02;8.40;99.90
26583;DHT22;14230;45.382;10.998;2023-02-28T17:21:30;8.30;99.90
26583;DHT22;14230;45.382;10.998;2023-02-28T17:23:58;8.20;99.90
26583;DHT22;14230;45.382;10.998;2023-02-28T17:26:26;8.00;99.90
26583;DHT22;14230;45.382;10.998;2023-02-28T17:28:56;7.90;99.90
26583;DHT22;14230;45.382;10.998;2023-02-28T17:31:25;7.90;99.90
26583;DHT22;14230;45.382;10.998;2023-02-28T17:33:53;7.90;99.90
26583;DHT22;14230;45.382;10.998;2023-02-28T17:36:25;7.80;99.90
26583;DHT22;14230;45.382;10.998;2023-02-28T17:38:54;7.70;99.90
26583;DHT22;14230;45.382;10.998;2023-02-28T17:41:25;7.60;99.90
26583;DHT22;14230;45.382;10.998;2023-02-28T17:43:57;7.50;99.90
26583;DHT22;14230;45.382;10.998;2023-02-28T17:46:25;7.50;99.90
26583;DHT22;14230;45.382;10.998;2023-02-28T17:48:54;7.60;99.90
26583;DHT22;14230;45.382;10.998;2023-02-28T17:51:23;7.60;99.90
26583;DHT22;14230;45.382;10.998;2023-02-28T17:53:51;7.50;99.90
26583;DHT22;14230;45.382;10.998;2023-02-28T17:56:24;7.50;99.90
26583;DHT22;14230;45.382;10.998;2023-02-28T17:58:53;7.40;99.90
26583;DHT22;14230;45.382;10.998;2023-02-28T18:01:22;7.40;99.90
26583;DHT22;14230;45.382;10.998;2023-02-28T18:03:50;7.40;99.90
26583;DHT22;14230;45.382;10.998;2023-02-28T18:06:30;7.30;99.90
26583;DHT22;14230;45.382;10.998;2023-02-28T18:09:00;7.20;99.90
26583;DHT22;14230;45.382;10.998;2023-02-28T18:11:28;7.10;99.90
26583;DHT22;14230;45.382;10.998;2023-02-28T18:14:09;7.10;99.90
26583;DHT22;14230;45.382;10.998;2023-02-28T18:16:37;7.00;99.90
26583;DHT22;14230;45.382;10.998;2023-02-28T18:19:05;7.00;99.90
26583;DHT22;14230;45.382;10.998;2023-02-28T18:21:33;6.90;99.90
26583;DHT22;14230;45.382;10.998;2023-02-28T18:24:00;6.90;99.90
26583;DHT22;14230;45.382;10.998;2023-02-28T18:26:27;6.90;99.90
26583;DHT22;14230;45.382;10.998;2023-02-28T18:28:55;6.90;99.90
26583;DHT22;14230;45.382;10.998;2023-02-28T18:31:23;6.90;99.90
26583;DHT22;14230;45.382;10.998;2023-02-28T18:33:51;6.80;99.90
26583;DHT22;14230;45.382;10.998;2023-02-28T18:36:20;6.70;99.90
26583;DHT22;14230;45.382;10.998;2023-02-28T18:38:48;6.70;99.90
26583;DHT22;14230;45.382;10.998;2023-02-28T18:41:18;6.70;99.90